Time,TemperatureF,DewpointF,PressureIn,WindDirection,WindDirectionDegrees,WindSpeedMPH,WindSpeedGustMPH,Humidity,HourlyPrecipIn,Conditions,Clouds,dailyrainin,SoftwareType,DateUTC
2013-07-05 00:02:00,65.0,42.6,29.57,East,81,0.0,0.0,44,0.00,,CLR,0.00,VWS V14.01,2013-07-05 06:02:00,
2013-07-05 00:07:00,64.8,42.4,29.57,East,81,0.0,0.0,44,0.00,,CLR,0.00,VWS V14.01,2013-07-05 06:07:00,
2013-07-05 00:12:00,64.7,42.9,29.57,East,81,0.0,0.0,45,0.00,,CLR,0.00,VWS V14.01,2013-07-05 06:12:00,
2013-07-05 00:17:00,64.5,42.1,29.56,East,81,0.0,0.0,44,0.00,,CLR,0.00,VWS V14.01,2013-07-05 06:17:00,
2013-07-05 00:22:00,64.3,42.5,29.56,East,81,0.0,0.0,45,0.00,,CLR,0.00,VWS V14.01,2013-07-05 06:22:00,
2013-07-05 00:27:00,64.0,42.3,29.56,East,81,0.0,0.0,45,0.00,,CLR,0.00,VWS V14.01,2013-07-05 06:27:00,
2013-07-05 00:32:00,63.9,42.7,29.58,East,81,0.0,0.0,46,0.00,,CLR,0.00,VWS V14.01,2013-07-05 06:32:00,
2013-07-05 00:37:00,63.5,42.4,29.58,East,81,0.0,0.0,46,0.00,,CLR,0.00,VWS V14.01,2013-07-05 06:37:00,
2013-07-05 00:42:00,63.4,42.3,29.58,East,81,0.0,0.0,46,0.00,,CLR,0.00,VWS V14.01,2013-07-05 06:42:00,
2013-07-05 00:48:00,63.2,42.1,29.58,East,81,0.0,0.0,46,0.00,,CLR,0.00,VWS V14.01,2013-07-05 06:48:00,
2013-07-05 00:53:00,63.1,42.6,29.58,East,81,0.0,0.0,47,0.00,,CLR,0.00,VWS V14.01,2013-07-05 06:53:00,
2013-07-05 00:58:00,63.1,42.0,29.58,East,81,0.0,0.0,46,0.00,,CLR,0.00,VWS V14.01,2013-07-05 06:58:00,
2013-07-05 01:03:00,63.1,42.0,29.58,East,81,0.0,0.0,46,0.00,,CLR,0.00,VWS V14.01,2013-07-05 07:03:00,
2013-07-05 01:08:00,63.2,42.1,29.58,East,81,0.0,0.0,46,0.00,,CLR,0.00,VWS V14.01,2013-07-05 07:08:00,
2013-07-05 01:13:00,63.5,41.8,29.58,East,81,0.0,0.0,45,0.00,,CLR,0.00,VWS V14.01,2013-07-05 07:13:00,
2013-07-05 01:18:00,64.0,42.8,29.59,East,81,0.0,0.0,46,0.00,,CLR,0.00,VWS V14.01,2013-07-05 07:18:00,
2013-07-05 01:23:00,64.3,41.9,29.59,East,81,0.0,0.0,44,0.00,,CLR,0.00,VWS V14.01,2013-07-05 07:23:00,
2013-07-05 01:28:00,64.7,42.3,29.59,East,81,0.0,0.0,44,0.00,,CLR,0.00,VWS V14.01,2013-07-05 07:28:00,
2013-07-05 01:33:00,64.8,42.4,29.58,East,81,0.0,0.0,44,0.00,,CLR,0.00,VWS V14.01,2013-07-05 07:33:00,
2013-07-05 01:38:00,64.8,41.8,29.58,East,81,0.0,0.0,43,0.00,,CLR,0.00,VWS V14.01,2013-07-05 07:38:00,
2013-07-05 01:43:00,65.0,42.0,29.58,East,84,0.0,0.0,43,0.00,,CLR,0.00,VWS V14.01,2013-07-05 07:43:00,
2013-07-05 01:48:00,65.2,42.2,29.59,East,84,0.0,1.0,43,0.00,,CLR,0.00,VWS V14.01,2013-07-05 07:48:00,
2013-07-05 01:53:00,65.2,41.5,29.59,ENE,63,0.0,0.0,42,0.00,,CLR,0.00,VWS V14.01,2013-07-05 07:53:00,
2013-07-05 01:59:00,64.8,41.8,29.59,ENE,63,0.0,0.0,43,0.00,,CLR,0.00,VWS V14.01,2013-07-05 07:59:00,
2013-07-05 02:04:00,64.5,42.1,29.59,ENE,63,0.0,0.0,44,0.00,,CLR,0.00,VWS V14.01,2013-07-05 08:04:00,
2013-07-05 02:09:00,64.3,42.5,29.59,East,80,0.0,0.0,45,0.00,,CLR,0.00,VWS V14.01,2013-07-05 08:09:00,
2013-07-05 02:14:00,64.0,40.5,29.59,ENE,70,0.0,0.0,42,0.00,,CLR,0.00,VWS V14.01,2013-07-05 08:14:00,
2013-07-05 02:19:00,64.0,41.1,29.58,NE,49,0.0,1.0,43,0.00,,CLR,0.00,VWS V14.01,2013-07-05 08:19:00,
2013-07-05 02:24:00,63.9,41.0,29.58,NE,49,0.0,0.0,43,0.00,,CLR,0.00,VWS V14.01,2013-07-05 08:24:00,
2013-07-05 02:29:00,63.9,38.5,29.58,ENE,61,0.0,1.0,39,0.00,,CLR,0.00,VWS V14.01,2013-07-05 08:29:00,
2013-07-05 02:34:00,64.0,38.6,29.59,ENE,60,0.0,0.0,39,0.00,,CLR,0.00,VWS V14.01,2013-07-05 08:34:00,
2013-07-05 02:39:00,64.2,39.4,29.59,ENE,65,0.0,0.0,40,0.00,,CLR,0.00,VWS V14.01,2013-07-05 08:39:00,
2013-07-05 02:44:00,64.3,39.5,29.59,ENE,65,0.0,0.0,40,0.00,,CLR,0.00,VWS V14.01,2013-07-05 08:44:00,
2013-07-05 02:49:00,64.3,40.1,29.60,ENE,65,0.0,0.0,41,0.00,,CLR,0.00,VWS V14.01,2013-07-05 08:49:00,
2013-07-05 02:50:00,64.2,41.3,29.60,ENE,65,0.0,0.0,43,0.00,,CLR,0.00,VWS V14.01,2013-07-05 08:50:00,
2013-07-05 02:56:00,63.9,39.1,29.60,ENE,65,0.0,0.0,40,0.00,,CLR,0.00,VWS V14.01,2013-07-05 08:56:00,
2013-07-05 03:01:00,63.7,38.3,29.60,ENE,65,0.0,0.0,39,0.00,,CLR,0.00,VWS V14.01,2013-07-05 09:01:00,
2013-07-05 03:06:00,63.7,39.0,29.59,ENE,65,0.0,0.0,40,0.00,,CLR,0.00,VWS V14.01,2013-07-05 09:06:00,
2013-07-05 03:12:00,63.7,37.6,29.59,ENE,65,0.0,0.0,38,0.00,,CLR,0.00,VWS V14.01,2013-07-05 09:12:00,
2013-07-05 03:17:00,63.9,38.5,29.60,WSW,252,0.0,4.0,39,0.00,,CLR,0.00,VWS V14.01,2013-07-05 09:17:00,
2013-07-05 03:22:00,64.5,36.3,29.60,ESE,121,0.0,0.0,35,0.00,,CLR,0.00,VWS V14.01,2013-07-05 09:22:00,
2013-07-05 03:27:00,64.8,38.6,29.60,ESE,121,0.0,0.0,38,0.00,,CLR,0.00,VWS V14.01,2013-07-05 09:27:00,
2013-07-05 03:33:00,64.8,39.9,29.60,ESE,121,0.0,0.0,40,0.00,,CLR,0.00,VWS V14.01,2013-07-05 09:33:00,
2013-07-05 03:39:00,64.3,39.5,29.60,ESE,121,0.0,0.0,40,0.00,,CLR,0.00,VWS V14.01,2013-07-05 09:39:00,
2013-07-05 03:45:00,63.9,39.1,29.60,ESE,121,0.0,0.0,40,0.00,,CLR,0.00,VWS V14.01,2013-07-05 09:45:00,
2013-07-05 03:50:00,63.4,40.5,29.61,ESE,121,0.0,0.0,43,0.00,,CLR,0.00,VWS V14.01,2013-07-05 09:50:00,
2013-07-05 03:56:00,63.1,40.3,29.61,ESE,121,0.0,0.0,43,0.00,,CLR,0.00,VWS V14.01,2013-07-05 09:56:00,
2013-07-05 04:01:00,62.4,39.6,29.61,ESE,121,0.0,0.0,43,0.00,,CLR,0.00,VWS V14.01,2013-07-05 10:01:00,
2013-07-05 04:06:00,62.0,39.9,29.62,ESE,121,0.0,0.0,44,0.00,,CLR,0.00,VWS V14.01,2013-07-05 10:06:00,
2013-07-05 04:11:00,61.6,40.1,29.62,ESE,121,0.0,0.0,45,0.00,,CLR,0.00,VWS V14.01,2013-07-05 10:11:00,
2013-07-05 04:17:00,61.3,40.4,29.60,ESE,121,0.0,0.0,46,0.00,,CLR,0.00,VWS V14.01,2013-07-05 10:17:00,
2013-07-05 04:22:00,60.9,40.5,29.60,ESE,121,0.0,0.0,47,0.00,,CLR,0.00,VWS V14.01,2013-07-05 10:22:00,
2013-07-05 04:28:00,60.5,40.2,29.60,ESE,121,0.0,0.0,47,0.00,,CLR,0.00,VWS V14.01,2013-07-05 10:28:00,
2013-07-05 04:34:00,60.4,40.1,29.60,ESE,121,0.0,0.0,47,0.00,,CLR,0.00,VWS V14.01,2013-07-05 10:34:00,
2013-07-05 04:39:00,60.5,38.5,29.60,ESE,121,0.0,0.0,44,0.00,,CLR,0.00,VWS V14.01,2013-07-05 10:39:00,
2013-07-05 04:44:00,60.9,38.3,29.60,NNE,17,0.0,2.0,43,0.00,,CLR,0.00,VWS V14.01,2013-07-05 10:44:00,
2013-07-05 04:50:00,61.0,40.1,29.59,NE,51,0.0,1.0,46,0.00,,CLR,0.00,VWS V14.01,2013-07-05 10:50:00,
2013-07-05 04:55:00,61.0,40.1,29.59,NE,45,0.0,1.0,46,0.00,,CLR,0.00,VWS V14.01,2013-07-05 10:55:00,
2013-07-05 05:00:00,60.7,40.4,29.59,East,82,0.0,1.0,47,0.00,,CLR,0.00,VWS V14.01,2013-07-05 11:00:00,
2013-07-05 05:05:00,60.4,40.1,29.59,East,82,0.0,0.0,47,0.00,,CLR,0.00,VWS V14.01,2013-07-05 11:05:00,
2013-07-05 05:11:00,60.2,39.9,29.59,East,82,0.0,0.0,47,0.00,,CLR,0.00,VWS V14.01,2013-07-05 11:11:00,
2013-07-05 05:16:00,59.9,40.2,29.59,East,82,0.0,0.0,48,0.00,,CLR,0.00,VWS V14.01,2013-07-05 11:16:00,
2013-07-05 05:21:00,59.6,39.4,29.60,ENE,78,0.0,0.0,47,0.00,,CLR,0.00,VWS V14.01,2013-07-05 11:21:00,
2013-07-05 05:27:00,59.3,39.1,29.60,ENE,78,0.0,0.0,47,0.00,,CLR,0.00,VWS V14.01,2013-07-05 11:27:00,
2013-07-05 05:32:00,59.2,39.0,29.61,ENE,78,0.0,1.0,47,0.00,,CLR,0.00,VWS V14.01,2013-07-05 11:32:00,
2013-07-05 05:37:00,59.0,37.7,29.61,East,94,1.0,1.0,45,0.00,,CLR,0.00,VWS V14.01,2013-07-05 11:37:00,
2013-07-05 05:42:00,59.2,37.3,29.61,NNE,30,0.0,3.0,44,0.00,,CLR,0.00,VWS V14.01,2013-07-05 11:42:00,
2013-07-05 05:48:00,59.3,35.0,29.62,NNE,18,0.0,0.0,40,0.00,,CLR,0.00,VWS V14.01,2013-07-05 11:48:00,
2013-07-05 05:53:00,59.9,34.9,29.62,NNW,339,3.0,3.0,39,0.00,,CLR,0.00,VWS V14.01,2013-07-05 11:53:00,
2013-07-05 05:58:00,60.5,34.8,29.62,ENE,63,0.0,1.0,38,0.00,,CLR,0.00,VWS V14.01,2013-07-05 11:58:00,
2013-07-05 06:04:00,61.0,34.6,29.61,NNW,340,1.0,2.0,37,0.00,,CLR,0.00,VWS V14.01,2013-07-05 12:04:00,
2013-07-05 06:10:00,61.5,38.8,29.61,NE,35,1.0,1.0,43,0.00,,CLR,0.00,VWS V14.01,2013-07-05 12:10:00,
2013-07-05 06:15:00,61.5,37.0,29.61,NNE,26,0.0,2.0,40,0.00,,CLR,0.00,VWS V14.01,2013-07-05 12:15:00,
2013-07-05 06:20:00,61.5,38.2,29.61,North,355,1.0,3.0,42,0.00,,CLR,0.00,VWS V14.01,2013-07-05 12:20:00,
2013-07-05 06:26:00,61.3,38.0,29.61,NE,36,0.0,1.0,42,0.00,,CLR,0.00,VWS V14.01,2013-07-05 12:26:00,
2013-07-05 06:31:00,61.3,37.4,29.61,NNE,15,0.0,2.0,41,0.00,,CLR,0.00,VWS V14.01,2013-07-05 12:31:00,
2013-07-05 06:36:00,61.6,38.3,29.61,NE,43,0.0,4.0,42,0.00,,CLR,0.00,VWS V14.01,2013-07-05 12:36:00,
2013-07-05 06:42:00,61.6,37.1,29.61,North,351,1.0,2.0,40,0.00,,CLR,0.00,VWS V14.01,2013-07-05 12:42:00,
2013-07-05 06:47:00,61.8,41.9,29.61,NNW,338,0.0,0.0,48,0.00,,CLR,0.00,VWS V14.01,2013-07-05 12:47:00,
2013-07-05 06:52:00,61.6,41.2,29.61,NE,48,0.0,1.0,47,0.00,,CLR,0.00,VWS V14.01,2013-07-05 12:52:00,
2013-07-05 06:57:00,61.6,42.3,29.61,NE,48,0.0,0.0,49,0.00,,CLR,0.00,VWS V14.01,2013-07-05 12:57:00,
2013-07-05 07:05:00,61.5,41.7,29.61,NE,48,0.0,0.0,48,0.00,,CLR,0.00,VWS V14.01,2013-07-05 13:05:00,
2013-07-05 07:10:00,61.5,43.2,29.61,NE,46,0.0,1.0,51,0.00,,CLR,0.00,VWS V14.01,2013-07-05 13:10:00,
2013-07-05 07:15:00,61.3,40.9,29.61,NE,47,0.0,0.0,47,0.00,,CLR,0.00,VWS V14.01,2013-07-05 13:15:00,
2013-07-05 07:20:00,61.5,42.7,29.65,NNW,333,0.0,1.0,50,0.00,,CLR,0.00,VWS V14.01,2013-07-05 13:20:00,
2013-07-05 07:25:00,61.6,38.9,29.65,East,98,0.0,1.0,43,0.00,,CLR,0.00,VWS V14.01,2013-07-05 13:25:00,
2013-07-05 07:30:00,62.0,43.2,29.65,North,9,0.0,1.0,50,0.00,,CLR,0.00,VWS V14.01,2013-07-05 13:30:00,
2013-07-05 07:37:00,62.4,41.4,29.65,NE,40,0.0,1.0,46,0.00,,CLR,0.00,VWS V14.01,2013-07-05 13:37:00,
2013-07-05 07:42:00,62.6,41.5,29.65,NE,40,0.0,0.0,46,0.00,,CLR,0.00,VWS V14.01,2013-07-05 13:42:00,
2013-07-05 07:47:00,62.7,41.6,29.65,NE,40,0.0,0.0,46,0.00,,CLR,0.00,VWS V14.01,2013-07-05 13:47:00,
2013-07-05 07:52:00,62.6,40.4,29.65,NE,40,0.0,1.0,44,0.00,,CLR,0.00,VWS V14.01,2013-07-05 13:52:00,
2013-07-05 07:57:00,62.6,42.1,29.65,NE,40,0.0,0.0,47,0.00,,CLR,0.00,VWS V14.01,2013-07-05 13:57:00,
2013-07-05 08:02:00,62.7,43.3,29.65,NE,40,1.0,1.0,49,0.00,,CLR,0.00,VWS V14.01,2013-07-05 14:02:00,
2013-07-05 08:09:00,63.1,39.7,29.65,NE,40,0.0,0.0,42,0.00,,CLR,0.00,VWS V14.01,2013-07-05 14:09:00,
2013-07-05 08:14:00,63.2,40.3,29.65,NE,40,0.0,0.0,43,0.00,,CLR,0.00,VWS V14.01,2013-07-05 14:14:00,
2013-07-05 08:19:00,63.5,42.4,29.68,NNE,19,1.0,1.0,46,0.00,,CLR,0.00,VWS V14.01,2013-07-05 14:19:00,
2013-07-05 08:24:00,63.9,41.0,29.68,NNE,15,0.0,0.0,43,0.00,,CLR,0.00,VWS V14.01,2013-07-05 14:24:00,
2013-07-05 08:30:00,64.0,43.9,29.68,NE,36,0.0,1.0,48,0.00,,CLR,0.00,VWS V14.01,2013-07-05 14:30:00,
2013-07-05 08:36:00,64.2,38.1,29.67,NE,50,0.0,1.0,38,0.00,,CLR,0.00,VWS V14.01,2013-07-05 14:36:00,
2013-07-05 08:41:00,64.2,37.4,29.67,NE,53,0.0,1.0,37,0.00,,CLR,0.00,VWS V14.01,2013-07-05 14:41:00,
2013-07-05 08:47:00,64.7,33.4,29.68,North,355,0.0,4.0,31,0.00,,CLR,0.00,VWS V14.01,2013-07-05 14:47:00,
2013-07-05 08:52:00,65.5,33.3,29.68,WNW,299,0.0,4.0,30,0.00,,CLR,0.00,VWS V14.01,2013-07-05 14:52:00,
2013-07-05 08:57:00,66.3,34.0,29.68,ENE,57,0.0,6.0,30,0.00,,CLR,0.00,VWS V14.01,2013-07-05 14:57:00,
2013-07-05 09:02:00,67.1,33.8,29.66,WSW,249,1.0,3.0,29,0.00,,CLR,0.00,VWS V14.01,2013-07-05 15:02:00,
2013-07-05 09:07:00,67.8,34.4,29.66,NW,319,0.0,4.0,29,0.00,,CLR,0.00,VWS V14.01,2013-07-05 15:07:00,
2013-07-05 09:13:00,68.6,33.3,29.66,WNW,299,2.0,2.0,27,0.00,,CLR,0.00,VWS V14.01,2013-07-05 15:13:00,
2013-07-05 09:18:00,69.6,35.1,29.67,NW,321,0.0,0.0,28,0.00,,CLR,0.00,VWS V14.01,2013-07-05 15:18:00,
2013-07-05 09:23:00,70.4,33.9,29.67,NE,55,0.0,2.0,26,0.00,,CLR,0.00,VWS V14.01,2013-07-05 15:23:00,
2013-07-05 09:29:00,70.9,34.3,29.67,West,271,0.0,2.0,26,0.00,,CLR,0.00,VWS V14.01,2013-07-05 15:29:00,
2013-07-05 09:34:00,71.3,34.7,29.66,WNW,295,0.0,3.0,26,0.00,,CLR,0.00,VWS V14.01,2013-07-05 15:34:00,
2013-07-05 09:39:00,71.6,32.9,29.66,ENE,77,0.0,0.0,24,0.00,,CLR,0.00,VWS V14.01,2013-07-05 15:39:00,
2013-07-05 09:44:00,71.6,34.9,29.66,NE,38,0.0,1.0,26,0.00,,CLR,0.00,VWS V14.01,2013-07-05 15:44:00,
2013-07-05 09:49:00,71.8,33.1,29.65,NE,51,0.0,1.0,24,0.00,,CLR,0.00,VWS V14.01,2013-07-05 15:49:00,
2013-07-05 09:50:00,71.8,34.1,29.65,South,169,0.0,1.0,25,0.00,,CLR,0.00,VWS V14.01,2013-07-05 15:50:00,
2013-07-05 09:55:00,71.8,33.1,29.65,West,265,3.0,6.0,24,0.00,,CLR,0.00,VWS V14.01,2013-07-05 15:55:00,
2013-07-05 10:00:00,71.6,34.0,29.65,North,5,0.0,3.0,25,0.00,,CLR,0.00,VWS V14.01,2013-07-05 16:00:00,
2013-07-05 10:05:00,71.6,34.0,29.65,East,92,0.0,2.0,25,0.00,,CLR,0.00,VWS V14.01,2013-07-05 16:05:00,
2013-07-05 10:06:00,71.6,35.9,29.65,ENE,78,0.0,6.0,27,0.00,,CLR,0.00,VWS V14.01,2013-07-05 16:06:00,
2013-07-05 10:11:00,71.3,34.7,29.65,East,80,0.0,5.0,26,0.00,,CLR,0.00,VWS V14.01,2013-07-05 16:11:00,
2013-07-05 10:16:00,71.3,36.5,29.65,West,270,0.0,5.0,28,0.00,,CLR,0.00,VWS V14.01,2013-07-05 16:16:00,
2013-07-05 10:21:00,71.5,36.7,29.67,WSW,242,0.0,5.0,28,0.00,,CLR,0.00,VWS V14.01,2013-07-05 16:21:00,
2013-07-05 10:26:00,72.0,37.1,29.67,WSW,250,2.0,4.0,28,0.00,,CLR,0.00,VWS V14.01,2013-07-05 16:26:00,
2013-07-05 10:31:00,72.3,37.4,29.67,West,269,3.0,9.0,28,0.00,,CLR,0.00,VWS V14.01,2013-07-05 16:31:00,
2013-07-05 10:36:00,72.3,36.5,29.66,East,92,1.0,5.0,27,0.00,,CLR,0.00,VWS V14.01,2013-07-05 16:36:00,
2013-07-05 10:39:00,72.3,35.5,29.66,NW,319,0.0,1.0,26,0.00,,CLR,0.00,VWS V14.01,2013-07-05 16:39:00,
2013-07-05 10:44:00,72.7,37.8,29.66,WSW,251,0.0,5.0,28,0.00,,CLR,0.00,VWS V14.01,2013-07-05 16:44:00,
2013-07-05 10:50:00,73.2,37.2,29.65,East,83,0.0,2.0,27,0.00,,CLR,0.00,VWS V14.01,2013-07-05 16:50:00,
2013-07-05 10:55:00,73.5,40.2,29.65,WSW,250,2.0,5.0,30,0.00,,CLR,0.00,VWS V14.01,2013-07-05 16:55:00,
2013-07-05 11:00:00,73.7,37.7,29.65,ENE,76,1.0,4.0,27,0.00,,CLR,0.00,VWS V14.01,2013-07-05 17:00:00,
2013-07-05 11:05:00,73.7,41.2,29.65,South,190,2.0,6.0,31,0.00,,CLR,0.00,VWS V14.01,2013-07-05 17:05:00,
2013-07-05 11:10:00,73.7,41.2,29.65,NW,324,0.0,4.0,31,0.00,,CLR,0.00,VWS V14.01,2013-07-05 17:10:00,
2013-07-05 11:15:00,74.6,39.4,29.65,ESE,103,1.0,1.0,28,0.00,,CLR,0.00,VWS V14.01,2013-07-05 17:15:00,
2013-07-05 11:20:00,75.6,40.2,29.64,NNE,19,1.0,2.0,28,0.00,,CLR,0.00,VWS V14.01,2013-07-05 17:20:00,
2013-07-05 11:25:00,76.0,40.6,29.64,WSW,244,0.0,4.0,28,0.00,,CLR,0.00,VWS V14.01,2013-07-05 17:25:00,
2013-07-05 11:31:00,75.6,38.3,29.64,NNE,22,1.0,4.0,26,0.00,,CLR,0.00,VWS V14.01,2013-07-05 17:31:00,
2013-07-05 11:36:00,75.1,38.9,29.64,West,267,2.0,5.0,27,0.00,,CLR,0.00,VWS V14.01,2013-07-05 17:36:00,
2013-07-05 11:41:00,74.6,42.0,29.64,South,187,0.0,10.0,31,0.00,,CLR,0.00,VWS V14.01,2013-07-05 17:41:00,
2013-07-05 11:46:00,74.7,38.5,29.64,West,281,0.0,7.0,27,0.00,,CLR,0.00,VWS V14.01,2013-07-05 17:46:00,
2013-07-05 11:51:00,74.9,38.7,29.64,WSW,241,0.0,3.0,27,0.00,,CLR,0.00,VWS V14.01,2013-07-05 17:51:00,
2013-07-05 11:56:00,75.6,40.2,29.64,East,83,0.0,3.0,28,0.00,,CLR,0.00,VWS V14.01,2013-07-05 17:56:00,
2013-07-05 12:01:00,76.0,37.7,29.64,WSW,254,0.0,5.0,25,0.00,,CLR,0.00,VWS V14.01,2013-07-05 18:01:00,
2013-07-05 12:06:00,76.1,39.7,29.63,ESE,103,0.0,3.0,27,0.00,,CLR,0.00,VWS V14.01,2013-07-05 18:06:00,
2013-07-05 12:11:00,76.1,42.5,29.63,NE,42,0.0,4.0,30,0.00,,CLR,0.00,VWS V14.01,2013-07-05 18:11:00,
2013-07-05 12:16:00,76.3,39.9,29.63,SSW,211,1.0,5.0,27,0.00,,CLR,0.00,VWS V14.01,2013-07-05 18:16:00,
2013-07-05 12:21:00,77.0,41.4,29.64,ENE,72,0.0,3.0,28,0.00,,CLR,0.00,VWS V14.01,2013-07-05 18:21:00,
2013-07-05 12:26:00,78.1,39.5,29.64,West,271,1.0,6.0,25,0.00,,CLR,0.00,VWS V14.01,2013-07-05 18:26:00,
2013-07-05 12:31:00,79.2,39.3,29.62,NNE,31,0.0,4.0,24,0.00,,CLR,0.00,VWS V14.01,2013-07-05 18:31:00,
2013-07-05 12:37:00,80.3,46.1,29.62,NNE,30,1.0,3.0,30,0.00,,CLR,0.00,VWS V14.01,2013-07-05 18:37:00,
2013-07-05 12:42:00,81.2,43.1,29.62,ENE,60,1.0,5.0,26,0.00,,CLR,0.00,VWS V14.01,2013-07-05 18:42:00,
2013-07-05 12:47:00,81.6,41.3,29.60,East,80,0.0,1.0,24,0.00,,CLR,0.00,VWS V14.01,2013-07-05 18:47:00,
2013-07-05 12:52:00,79.9,41.0,29.60,SW,225,1.0,7.0,25,0.00,,CLR,0.00,VWS V14.01,2013-07-05 18:52:00,
2013-07-05 12:57:00,78.6,41.9,29.60,SSW,210,0.0,10.0,27,0.00,,CLR,0.00,VWS V14.01,2013-07-05 18:57:00,
2013-07-05 13:02:00,78.5,42.7,29.60,SW,225,1.0,3.0,28,0.00,,CLR,0.00,VWS V14.01,2013-07-05 19:02:00,
2013-07-05 13:07:00,78.3,41.6,29.60,WSW,241,0.0,5.0,27,0.00,,CLR,0.00,VWS V14.01,2013-07-05 19:07:00,
2013-07-05 13:12:00,79.2,42.4,29.60,SW,230,1.0,4.0,27,0.00,,CLR,0.00,VWS V14.01,2013-07-05 19:12:00,
2013-07-05 13:17:00,79.6,44.6,29.59,ENE,75,1.0,11.0,29,0.00,,CLR,0.00,VWS V14.01,2013-07-05 19:17:00,
2013-07-05 13:22:00,79.8,39.8,29.59,West,268,0.0,9.0,24,0.00,,CLR,0.00,VWS V14.01,2013-07-05 19:22:00,
2013-07-05 13:27:00,78.8,42.0,29.59,NE,42,1.0,2.0,27,0.00,,CLR,0.00,VWS V14.01,2013-07-05 19:27:00,
2013-07-05 13:32:00,78.6,40.9,29.59,SSW,202,2.0,3.0,26,0.00,,CLR,0.00,VWS V14.01,2013-07-05 19:32:00,
2013-07-05 13:35:00,78.6,40.9,29.59,NNW,327,3.0,5.0,26,0.00,,CLR,0.00,VWS V14.01,2013-07-05 19:35:00,
2013-07-05 13:40:00,78.1,44.2,29.59,SW,216,2.0,4.0,30,0.00,,CLR,0.00,VWS V14.01,2013-07-05 19:40:00,
2013-07-05 13:45:00,77.7,42.0,29.59,WSW,242,3.0,4.0,28,0.00,,CLR,0.00,VWS V14.01,2013-07-05 19:45:00,
2013-07-05 13:50:00,77.0,41.4,29.60,SSE,159,0.0,5.0,28,0.00,,CLR,0.00,VWS V14.01,2013-07-05 19:50:00,
2013-07-05 13:55:00,77.7,43.8,29.60,WSW,255,1.0,6.0,30,0.00,,CLR,0.00,VWS V14.01,2013-07-05 19:55:00,
2013-07-05 14:00:00,78.6,44.6,29.60,WSW,246,3.0,4.0,30,0.00,,CLR,0.00,VWS V14.01,2013-07-05 20:00:00,
2013-07-05 14:05:00,79.2,44.2,29.58,WNW,294,1.0,1.0,29,0.00,,CLR,0.00,VWS V14.01,2013-07-05 20:05:00,
2013-07-05 14:10:00,80.3,46.1,29.58,WNW,293,0.0,3.0,30,0.00,,CLR,0.00,VWS V14.01,2013-07-05 20:10:00,
2013-07-05 14:15:00,80.3,43.3,29.58,NE,35,0.0,3.0,27,0.00,,CLR,0.00,VWS V14.01,2013-07-05 20:15:00,
2013-07-05 14:20:00,80.9,45.7,29.58,SSW,209,1.0,2.0,29,0.00,,CLR,0.00,VWS V14.01,2013-07-05 20:20:00,
2013-07-05 14:25:00,81.4,43.3,29.58,NE,55,2.0,3.0,26,0.00,,CLR,0.00,VWS V14.01,2013-07-05 20:25:00,
2013-07-05 14:30:00,82.8,46.4,29.58,NE,40,0.0,2.0,28,0.00,,CLR,0.00,VWS V14.01,2013-07-05 20:30:00,
2013-07-05 14:35:00,84.1,45.5,29.56,WNW,302,1.0,3.0,26,0.00,,CLR,0.00,VWS V14.01,2013-07-05 20:35:00,
2013-07-05 14:40:00,84.3,45.7,29.56,ENE,61,1.0,3.0,26,0.00,,CLR,0.00,VWS V14.01,2013-07-05 20:40:00,
2013-07-05 14:46:00,84.7,42.8,29.56,West,281,4.0,5.0,23,0.00,,CLR,0.00,VWS V14.01,2013-07-05 20:46:00,
2013-07-05 14:51:00,83.0,43.6,29.55,West,273,1.0,8.0,25,0.00,,CLR,0.00,VWS V14.01,2013-07-05 20:51:00,
2013-07-05 14:56:00,82.0,44.8,29.55,NW,320,1.0,5.0,27,0.00,,CLR,0.00,VWS V14.01,2013-07-05 20:56:00,
2013-07-05 15:01:00,82.0,45.7,29.55,WSW,250,5.0,5.0,28,0.00,,CLR,0.00,VWS V14.01,2013-07-05 21:01:00,
2013-07-05 15:06:00,81.8,46.5,29.56,ENE,69,4.0,4.0,29,0.00,,CLR,0.00,VWS V14.01,2013-07-05 21:06:00,
2013-07-05 15:11:00,82.4,46.1,29.56,SSW,211,0.0,7.0,28,0.00,,CLR,0.00,VWS V14.01,2013-07-05 21:11:00,
2013-07-05 15:16:00,82.0,45.7,29.56,NNE,15,0.0,4.0,28,0.00,,CLR,0.00,VWS V14.01,2013-07-05 21:16:00,
2013-07-05 15:21:00,82.8,42.4,29.56,NNW,344,0.0,4.0,24,0.00,,CLR,0.00,VWS V14.01,2013-07-05 21:21:00,
2013-07-05 15:26:00,84.0,44.4,29.56,ENE,65,2.0,2.0,25,0.00,,CLR,0.00,VWS V14.01,2013-07-05 21:26:00,
2013-07-05 15:31:00,84.7,41.7,29.56,ENE,78,0.0,2.0,22,0.00,,CLR,0.00,VWS V14.01,2013-07-05 21:31:00,
2013-07-05 15:36:00,84.9,47.2,29.54,WNW,284,2.0,4.0,27,0.00,,CLR,0.00,VWS V14.01,2013-07-05 21:36:00,
2013-07-05 15:41:00,83.8,46.3,29.54,WNW,291,0.0,5.0,27,0.00,,CLR,0.00,VWS V14.01,2013-07-05 21:41:00,
2013-07-05 15:46:00,82.4,45.1,29.54,ESE,118,1.0,5.0,27,0.00,,CLR,0.00,VWS V14.01,2013-07-05 21:46:00,
2013-07-05 15:51:00,81.2,44.1,29.54,SW,235,0.0,2.0,27,0.00,,CLR,0.00,VWS V14.01,2013-07-05 21:51:00,
2013-07-05 15:56:00,81.2,46.0,29.54,ESE,108,0.0,3.0,29,0.00,,CLR,0.00,VWS V14.01,2013-07-05 21:56:00,
2013-07-05 16:01:00,80.7,44.6,29.54,SW,225,1.0,4.0,28,0.00,,CLR,0.00,VWS V14.01,2013-07-05 22:01:00,
2013-07-05 16:06:00,79.2,43.3,29.55,East,82,2.0,3.0,28,0.00,,CLR,0.00,VWS V14.01,2013-07-05 22:06:00,
2013-07-05 16:11:00,78.8,43.0,29.55,SSW,195,1.0,4.0,28,0.00,,CLR,0.00,VWS V14.01,2013-07-05 22:11:00,
2013-07-05 16:17:00,78.1,45.9,29.56,West,267,0.0,4.0,32,0.00,,CLR,0.00,VWS V14.01,2013-07-05 22:17:00,
2013-07-05 16:22:00,77.2,41.6,29.56,WSW,254,3.0,6.0,28,0.00,,CLR,0.00,VWS V14.01,2013-07-05 22:22:00,
2013-07-05 16:27:00,76.3,43.5,29.56,West,266,0.0,4.0,31,0.00,,CLR,0.00,VWS V14.01,2013-07-05 22:27:00,
2013-07-05 16:32:00,75.6,42.9,29.58,WSW,244,0.0,2.0,31,0.00,,CLR,0.00,VWS V14.01,2013-07-05 22:32:00,
2013-07-05 16:37:00,75.3,42.6,29.58,West,271,0.0,2.0,31,0.00,,CLR,0.00,VWS V14.01,2013-07-05 22:37:00,
2013-07-05 16:42:00,75.1,44.1,29.58,West,275,1.0,1.0,33,0.00,,CLR,0.00,VWS V14.01,2013-07-05 22:42:00,
2013-07-05 16:47:00,74.9,44.7,29.57,West,275,0.0,0.0,34,0.00,,CLR,0.00,VWS V14.01,2013-07-05 22:47:00,
2013-07-05 16:52:00,74.7,45.3,29.57,SW,234,1.0,4.0,35,0.00,,CLR,0.00,VWS V14.01,2013-07-05 22:52:00,
2013-07-05 16:57:00,74.6,48.0,29.57,SW,234,0.0,1.0,39,0.00,,CLR,0.00,VWS V14.01,2013-07-05 22:57:00,
2013-07-05 17:02:00,74.4,44.2,29.57,WSW,248,0.0,3.0,34,0.00,,CLR,0.00,VWS V14.01,2013-07-05 23:02:00,
2013-07-05 17:07:00,74.2,44.8,29.57,WSW,250,0.0,1.0,35,0.00,,CLR,0.00,VWS V14.01,2013-07-05 23:07:00,
2013-07-05 17:12:00,74.0,43.9,29.57,SW,235,1.0,2.0,34,0.00,,CLR,0.00,VWS V14.01,2013-07-05 23:12:00,
2013-07-05 17:17:00,73.7,45.8,29.56,West,268,0.0,2.0,37,0.00,,CLR,0.00,VWS V14.01,2013-07-05 23:17:00,
2013-07-05 17:22:00,73.5,43.4,29.56,WSW,239,1.0,4.0,34,0.00,,CLR,0.00,VWS V14.01,2013-07-05 23:22:00,
2013-07-05 17:27:00,73.3,43.3,29.56,SW,235,0.0,2.0,34,0.00,,CLR,0.00,VWS V14.01,2013-07-05 23:27:00,
2013-07-05 17:29:00,73.3,43.3,29.56,SW,234,0.0,0.0,34,0.00,,CLR,0.00,VWS V14.01,2013-07-05 23:29:00,
2013-07-05 17:34:00,73.3,44.8,29.59,SW,229,0.0,1.0,36,0.00,,CLR,0.00,VWS V14.01,2013-07-05 23:34:00,
2013-07-05 17:39:00,73.3,45.5,29.59,WSW,254,0.0,0.0,37,0.00,,CLR,0.00,VWS V14.01,2013-07-05 23:39:00,
2013-07-05 17:44:00,73.0,46.6,29.59,WSW,254,0.0,0.0,39,0.00,,CLR,0.00,VWS V14.01,2013-07-05 23:44:00,
2013-07-05 17:49:00,72.7,51.3,29.59,NE,35,0.0,2.0,47,0.00,,CLR,0.00,VWS V14.01,2013-07-05 23:49:00,
2013-07-05 17:54:00,71.5,50.8,29.59,NE,35,0.0,0.0,48,0.00,,CLR,0.00,VWS V14.01,2013-07-05 23:54:00,
2013-07-05 17:59:00,70.3,52.4,29.59,NE,35,0.0,0.0,53,0.00,,CLR,0.00,VWS V14.01,2013-07-05 23:59:00,
2013-07-05 18:04:00,69.4,53.5,29.62,NE,34,2.0,7.0,57,0.00,,CLR,0.00,VWS V14.01,2013-07-06 00:04:00,
2013-07-05 18:09:00,68.9,50.0,29.62,NE,34,0.0,0.0,51,0.00,,CLR,0.00,VWS V14.01,2013-07-06 00:09:00,
2013-07-05 18:14:00,68.8,50.0,29.62,NE,35,0.0,4.0,51,0.00,,CLR,0.00,VWS V14.01,2013-07-06 00:14:00,
2013-07-05 18:19:00,68.8,50.0,29.63,NNE,17,0.0,3.0,51,0.00,,CLR,0.00,VWS V14.01,2013-07-06 00:19:00,
2013-07-05 18:20:00,68.8,50.0,29.63,NNE,17,0.0,3.0,51,0.00,,CLR,0.00,VWS V14.01,2013-07-06 00:20:00,
2013-07-05 18:25:00,68.6,50.3,29.63,NNE,17,0.0,1.0,52,0.00,,CLR,0.00,VWS V14.01,2013-07-06 00:25:00,
2013-07-05 18:27:00,68.6,51.8,29.63,NNE,17,0.0,1.0,55,0.00,,CLR,0.00,VWS V14.01,2013-07-06 00:27:00,
2013-07-05 18:33:00,68.3,50.5,29.62,NE,38,0.0,0.0,53,0.00,,CLR,0.00,VWS V14.01,2013-07-06 00:33:00,
2013-07-05 18:38:00,67.9,50.7,29.62,NE,38,0.0,0.0,54,0.00,,CLR,0.00,VWS V14.01,2013-07-06 00:38:00,
2013-07-05 18:43:00,67.6,50.4,29.62,NE,38,0.0,0.0,54,0.00,,CLR,0.00,VWS V14.01,2013-07-06 00:43:00,
2013-07-05 18:48:00,67.4,51.7,29.61,NNE,32,0.0,0.0,57,0.00,,CLR,0.00,VWS V14.01,2013-07-06 00:48:00,
2013-07-05 18:53:00,67.3,50.6,29.61,NNE,32,0.0,0.0,55,0.00,,CLR,0.00,VWS V14.01,2013-07-06 00:53:00,
2013-07-05 18:58:00,67.1,52.8,29.61,NNE,32,0.0,0.0,60,0.00,,CLR,0.00,VWS V14.01,2013-07-06 00:58:00,
2013-07-05 19:03:00,67.1,51.4,29.59,NNE,32,0.0,0.0,57,0.00,,CLR,0.00,VWS V14.01,2013-07-06 01:03:00,
2013-07-05 19:08:00,67.9,52.6,29.59,WNW,293,0.0,1.0,58,0.00,,CLR,0.00,VWS V14.01,2013-07-06 01:08:00,
2013-07-05 19:13:00,68.9,47.9,29.59,WNW,293,0.0,0.0,47,0.00,,CLR,0.00,VWS V14.01,2013-07-06 01:13:00,
2013-07-05 19:18:00,69.8,51.4,29.58,North,355,0.0,0.0,52,0.00,,CLR,0.00,VWS V14.01,2013-07-06 01:18:00,
2013-07-05 19:23:00,70.6,49.4,29.58,NE,48,0.0,0.0,47,0.00,,CLR,0.00,VWS V14.01,2013-07-06 01:23:00,
2013-07-05 19:28:00,70.8,49.6,29.58,NE,34,0.0,1.0,47,0.00,,CLR,0.00,VWS V14.01,2013-07-06 01:28:00,
2013-07-05 19:33:00,70.6,48.8,29.57,NW,317,0.0,4.0,46,0.00,,CLR,0.00,VWS V14.01,2013-07-06 01:33:00,
2013-07-05 19:38:00,69.9,47.0,29.57,West,262,2.0,13.0,44,0.00,,CLR,0.00,VWS V14.01,2013-07-06 01:38:00,
2013-07-05 19:43:00,68.8,48.3,29.57,West,274,1.0,7.0,48,0.00,,CLR,0.00,VWS V14.01,2013-07-06 01:43:00,
2013-07-05 19:49:00,67.9,48.6,29.62,West,269,0.0,4.0,50,0.00,,CLR,0.00,VWS V14.01,2013-07-06 01:49:00,
2013-07-05 19:54:00,67.3,48.6,29.62,SE,127,0.0,1.0,51,0.00,,CLR,0.00,VWS V14.01,2013-07-06 01:54:00,
2013-07-05 19:59:00,66.9,48.2,29.62,South,180,0.0,4.0,51,0.00,,CLR,0.00,VWS V14.01,2013-07-06 01:59:00,
2013-07-05 20:04:00,66.6,47.9,29.63,SW,229,0.0,3.0,51,0.00,,CLR,0.00,VWS V14.01,2013-07-06 02:04:00,
2013-07-05 20:09:00,66.3,48.2,29.63,West,275,1.0,1.0,52,0.00,,CLR,0.00,VWS V14.01,2013-07-06 02:09:00,
2013-07-05 20:14:00,66.1,48.0,29.63,SW,233,0.0,1.0,52,0.00,,CLR,0.00,VWS V14.01,2013-07-06 02:14:00,
2013-07-05 20:19:00,65.8,48.7,29.62,SW,218,1.0,1.0,54,0.00,,CLR,0.00,VWS V14.01,2013-07-06 02:19:00,
2013-07-05 20:24:00,65.6,48.0,29.62,SW,225,0.0,0.0,53,0.00,,CLR,0.00,VWS V14.01,2013-07-06 02:24:00,
2013-07-05 20:29:00,65.3,48.7,29.62,SW,225,0.0,0.0,55,0.00,,CLR,0.00,VWS V14.01,2013-07-06 02:29:00,
2013-07-05 20:34:00,65.0,49.4,29.62,SW,225,0.0,0.0,57,0.00,,CLR,0.00,VWS V14.01,2013-07-06 02:34:00,
2013-07-05 20:39:00,64.7,48.7,29.62,SW,225,0.0,0.0,56,0.00,,CLR,0.00,VWS V14.01,2013-07-06 02:39:00,
2013-07-05 20:44:00,64.2,49.6,29.62,SW,225,0.0,0.0,59,0.00,,CLR,0.00,VWS V14.01,2013-07-06 02:44:00,
2013-07-05 20:49:00,63.9,48.8,29.62,SW,225,0.0,0.0,58,0.00,,CLR,0.00,VWS V14.01,2013-07-06 02:49:00,
2013-07-05 20:54:00,63.4,47.9,29.62,SW,225,0.0,0.0,57,0.00,,CLR,0.00,VWS V14.01,2013-07-06 02:54:00,
2013-07-05 20:59:00,63.1,48.6,29.62,SW,225,0.0,0.0,59,0.00,,CLR,0.00,VWS V14.01,2013-07-06 02:59:00,
2013-07-05 21:04:00,62.7,48.6,29.63,SW,225,0.0,0.0,60,0.00,,CLR,0.00,VWS V14.01,2013-07-06 03:04:00,
2013-07-05 21:10:00,62.4,48.8,29.63,SW,225,0.0,0.0,61,0.00,,CLR,0.00,VWS V14.01,2013-07-06 03:10:00,
2013-07-05 21:15:00,62.3,49.1,29.63,SW,225,0.0,0.0,62,0.00,,CLR,0.00,VWS V14.01,2013-07-06 03:15:00,
2013-07-05 21:20:00,62.0,48.8,29.61,SW,225,0.0,0.0,62,0.00,,CLR,0.00,VWS V14.01,2013-07-06 03:20:00,
2013-07-05 21:25:00,61.8,49.1,29.61,SW,225,0.0,0.0,63,0.00,,CLR,0.00,VWS V14.01,2013-07-06 03:25:00,
2013-07-05 21:30:00,61.6,48.5,29.61,SW,225,0.0,0.0,62,0.00,,CLR,0.00,VWS V14.01,2013-07-06 03:30:00,
2013-07-05 21:35:00,61.3,48.2,29.61,SW,225,0.0,0.0,62,0.00,,CLR,0.00,VWS V14.01,2013-07-06 03:35:00,
2013-07-05 21:40:00,61.2,48.9,29.61,SW,225,0.0,0.0,64,0.00,,CLR,0.00,VWS V14.01,2013-07-06 03:40:00,
2013-07-05 21:43:00,60.9,48.7,29.61,SW,225,0.0,0.0,64,0.00,,CLR,0.00,VWS V14.01,2013-07-06 03:43:00,
2013-07-05 21:49:00,60.4,48.6,29.62,SW,225,0.0,0.0,65,0.00,,CLR,0.00,VWS V14.01,2013-07-06 03:49:00,
2013-07-05 21:54:00,60.1,48.7,29.62,SW,225,0.0,0.0,66,0.00,,CLR,0.00,VWS V14.01,2013-07-06 03:54:00,
2013-07-05 21:59:00,59.8,48.4,29.62,SW,225,0.0,0.0,66,0.00,,CLR,0.00,VWS V14.01,2013-07-06 03:59:00,
2013-07-05 22:01:00,59.6,47.8,29.62,SW,225,0.0,0.0,65,0.00,,CLR,0.00,VWS V14.01,2013-07-06 04:01:00,
2013-07-05 22:02:00,59.5,48.2,29.64,SW,225,0.0,0.0,66,0.00,,CLR,0.00,VWS V14.01,2013-07-06 04:02:00,
2013-07-05 22:04:00,59.3,48.0,29.64,SW,225,0.0,0.0,66,0.00,,CLR,0.00,VWS V14.01,2013-07-06 04:04:00,
2013-07-05 22:08:00,59.2,48.3,29.64,SW,225,0.0,0.0,67,0.00,,CLR,0.00,VWS V14.01,2013-07-06 04:08:00,
2013-07-05 22:13:00,58.6,48.1,29.64,SW,225,0.0,0.0,68,0.00,,CLR,0.00,VWS V14.01,2013-07-06 04:13:00,
2013-07-05 22:18:00,58.3,47.8,29.64,SW,225,0.0,0.0,68,0.00,,CLR,0.00,VWS V14.01,2013-07-06 04:18:00,
2013-07-05 22:23:00,58.0,47.9,29.64,SW,225,0.0,0.0,69,0.00,,CLR,0.00,VWS V14.01,2013-07-06 04:23:00,
2013-07-05 22:28:00,57.8,47.7,29.64,SW,225,0.0,0.0,69,0.00,,CLR,0.00,VWS V14.01,2013-07-06 04:28:00,
2013-07-05 22:33:00,57.8,47.7,29.64,SW,225,0.0,0.0,69,0.00,,CLR,0.00,VWS V14.01,2013-07-06 04:33:00,
2013-07-05 22:38:00,57.6,47.5,29.64,SW,225,0.0,0.0,69,0.00,,CLR,0.00,VWS V14.01,2013-07-06 04:38:00,
2013-07-05 22:43:00,57.5,47.8,29.64,SW,225,0.0,0.0,70,0.00,,CLR,0.00,VWS V14.01,2013-07-06 04:43:00,
2013-07-05 22:48:00,57.5,48.2,29.65,SSE,157,0.0,0.0,71,0.00,,CLR,0.00,VWS V14.01,2013-07-06 04:48:00,
2013-07-05 22:53:00,57.5,47.8,29.65,SSE,157,0.0,0.0,70,0.00,,CLR,0.00,VWS V14.01,2013-07-06 04:53:00,
2013-07-05 22:58:00,57.6,47.9,29.65,SSE,157,0.0,0.0,70,0.00,,CLR,0.00,VWS V14.01,2013-07-06 04:58:00,
2013-07-05 23:03:00,57.5,47.8,29.65,SSE,157,0.0,0.0,70,0.00,,CLR,0.00,VWS V14.01,2013-07-06 05:03:00,
2013-07-05 23:08:00,57.5,48.2,29.65,SSE,157,0.0,0.0,71,0.00,,CLR,0.00,VWS V14.01,2013-07-06 05:08:00,
2013-07-05 23:14:00,57.3,48.0,29.65,SSE,157,0.0,0.0,71,0.00,,CLR,0.00,VWS V14.01,2013-07-06 05:14:00,
2013-07-05 23:19:00,57.3,48.0,29.65,SSE,157,0.0,0.0,71,0.00,,CLR,0.00,VWS V14.01,2013-07-06 05:19:00,
2013-07-05 23:24:00,57.2,47.9,29.65,SSE,157,0.0,0.0,71,0.00,,CLR,0.00,VWS V14.01,2013-07-06 05:24:00,
2013-07-05 23:29:00,57.2,47.9,29.65,SSE,157,0.0,0.0,71,0.00,,CLR,0.00,VWS V14.01,2013-07-06 05:29:00,
2013-07-05 23:34:00,57.0,47.7,29.66,SSE,157,0.0,0.0,71,0.00,,CLR,0.00,VWS V14.01,2013-07-06 05:34:00,
2013-07-05 23:39:00,56.9,47.6,29.66,SSE,157,0.0,0.0,71,0.00,,CLR,0.00,VWS V14.01,2013-07-06 05:39:00,
2013-07-05 23:40:00,56.9,48.0,29.66,SSE,157,0.0,0.0,72,0.00,,CLR,0.00,VWS V14.01,2013-07-06 05:40:00,
2013-07-05 23:45:00,56.9,48.0,29.66,SSE,157,0.0,0.0,72,0.00,,CLR,0.00,VWS V14.01,2013-07-06 05:45:00,
2013-07-05 23:50:00,56.7,47.8,29.66,SSE,157,0.0,0.0,72,0.00,,CLR,0.00,VWS V14.01,2013-07-06 05:50:00,
2013-07-05 23:56:00,56.6,47.7,29.66,SSE,157,0.0,0.0,72,0.00,,CLR,0.00,VWS V14.01,2013-07-06 05:56:00,